createdAt,value
2019-04-14T00:00:03.446Z,912.71
2019-04-14T00:01:04.236Z,912.74
2019-04-14T00:02:03.168Z,912.74
2019-04-14T00:03:02.933Z,912.73
2019-04-14T00:04:03.038Z,912.74
2019-04-14T00:05:03.892Z,912.75
2019-04-14T00:06:02.838Z,912.79
2019-04-14T00:07:03.704Z,912.79
2019-04-14T00:08:02.793Z,912.80
2019-04-14T00:09:03.200Z,912.82
2019-04-14T00:10:02.957Z,912.84
2019-04-14T00:11:03.909Z,912.84
2019-04-14T00:12:05.812Z,912.86
2019-04-14T00:13:02.613Z,912.91
2019-04-14T00:14:03.162Z,912.89
2019-04-14T00:15:02.792Z,912.92
2019-04-14T00:16:03.135Z,912.90
2019-04-14T00:17:02.502Z,912.95
2019-04-14T00:18:03.205Z,912.90
2019-04-14T00:19:02.442Z,912.93
2019-04-14T00:20:03.227Z,912.91
2019-04-14T00:21:02.617Z,912.95
2019-04-14T00:22:03.263Z,912.93
2019-04-14T00:23:02.294Z,912.98
2019-04-14T00:24:03.079Z,912.93
2019-04-14T00:25:02.448Z,912.99
2019-04-14T00:26:02.998Z,912.99
2019-04-14T00:27:02.267Z,913.05
2019-04-14T00:28:03.032Z,913.05
2019-04-14T00:29:02.635Z,913.08
2019-04-14T00:30:03.265Z,913.08
2019-04-14T00:31:02.340Z,913.09
2019-04-14T00:32:02.986Z,913.06
2019-04-14T00:33:02.032Z,913.12
2019-04-14T00:34:02.840Z,913.08
2019-04-14T00:35:01.936Z,913.06
2019-04-14T00:36:02.282Z,913.01
2019-04-14T00:37:01.820Z,913.00
2019-04-14T00:38:02.362Z,912.95
2019-04-14T00:39:01.773Z,912.94
2019-04-14T00:40:01.945Z,912.98
2019-04-14T00:41:02.704Z,912.97
2019-04-14T00:42:03.416Z,913.01
2019-04-14T00:43:02.698Z,912.96
2019-04-14T00:44:01.617Z,913.00
2019-04-14T00:45:02.845Z,913.03
2019-04-14T00:46:02.599Z,913.02
2019-04-14T00:47:02.761Z,913.05
2019-04-14T00:48:09.084Z,913.08
2019-04-14T00:49:02.727Z,913.05
2019-04-14T00:50:01.648Z,913.03
2019-04-14T00:51:02.646Z,913.01
2019-04-14T00:52:01.511Z,912.99
2019-04-14T00:53:01.296Z,913.00
2019-04-14T00:54:02.168Z,912.97
2019-04-14T00:55:01.232Z,912.96
2019-04-14T00:56:01.943Z,912.96
2019-04-14T00:57:01.139Z,912.96
2019-04-14T00:58:01.604Z,913.02
2019-04-14T00:59:01.116Z,912.99
2019-04-14T01:00:01.773Z,913.03
2019-04-14T01:01:01.080Z,913.03
2019-04-14T01:02:01.362Z,913.04
2019-04-14T01:03:00.966Z,913.07
2019-04-14T01:04:01.256Z,913.09
2019-04-14T01:05:00.894Z,913.10
2019-04-14T01:06:01.180Z,913.06
2019-04-14T01:07:00.816Z,913.06
2019-04-14T01:08:00.947Z,913.06
2019-04-14T01:09:02.049Z,913.04
2019-04-14T01:10:01.732Z,912.98
2019-04-14T01:11:01.038Z,913.03
2019-04-14T01:12:01.665Z,913.00
2019-04-14T01:13:00.674Z,913.02
2019-04-14T01:14:01.498Z,913.04
2019-04-14T01:15:00.726Z,913.07
2019-04-14T01:16:07.042Z,913.08
2019-04-14T01:17:00.515Z,913.08
2019-04-14T01:18:01.393Z,913.10
2019-04-14T01:19:00.493Z,913.11
2019-04-14T01:20:01.410Z,913.13
2019-04-14T01:21:00.399Z,913.14
2019-04-14T01:22:01.099Z,913.14
2019-04-14T01:23:00.585Z,913.18
2019-04-14T01:24:01.061Z,913.20
2019-04-14T01:26:00.699Z,913.25
2019-04-14T01:27:01.620Z,913.29
2019-04-14T01:28:00.347Z,913.28
2019-04-14T01:29:01.386Z,913.27
2019-04-14T01:30:00.356Z,913.27
2019-04-14T01:31:01.152Z,913.27
2019-04-14T01:32:00.182Z,913.26
2019-04-14T01:33:01.017Z,913.27
2019-04-14T01:34:00.227Z,913.23
2019-04-14T01:35:00.910Z,913.23
2019-04-14T01:35:59.851Z,913.22
2019-04-14T01:37:00.722Z,913.22
2019-04-14T01:37:59.800Z,913.22
2019-04-14T01:39:00.348Z,913.19
2019-04-14T01:40:00.916Z,913.19
2019-04-14T01:40:59.925Z,913.22
2019-04-14T01:42:00.618Z,913.22
2019-04-14T01:42:59.641Z,913.20
2019-04-14T01:44:00.323Z,913.20
2019-04-14T01:44:59.557Z,913.20
2019-04-14T01:46:07.773Z,913.21
2019-04-14T01:46:59.577Z,913.20
2019-04-14T01:47:59.562Z,913.20
2019-04-14T01:49:00.625Z,913.21
2019-04-14T01:49:59.488Z,913.24
2019-04-14T01:51:00.476Z,913.20
2019-04-14T01:51:59.328Z,913.19
2019-04-14T01:52:59.303Z,913.22
2019-04-14T01:53:59.595Z,913.20
2019-04-14T01:55:00.389Z,913.22
2019-04-14T01:55:59.238Z,913.22
2019-04-14T01:57:00.180Z,913.16
2019-04-14T01:57:59.156Z,913.17
2019-04-14T01:59:00.000Z,913.16
2019-04-14T01:59:59.059Z,913.12
2019-04-14T02:00:59.654Z,913.10
2019-04-14T02:01:59.072Z,913.08
2019-04-14T02:02:59.697Z,913.10
2019-04-14T02:03:58.939Z,913.11
2019-04-14T02:04:59.633Z,913.09
2019-04-14T02:05:58.858Z,913.06
2019-04-14T02:06:59.497Z,913.05
2019-04-14T02:08:00.070Z,913.03
2019-04-14T02:08:58.939Z,913.03
2019-04-14T02:09:59.592Z,913.03
2019-04-14T02:10:58.784Z,912.99
2019-04-14T02:11:59.491Z,913.01
2019-04-14T02:12:58.642Z,913.02
2019-04-14T02:13:59.365Z,912.96
2019-04-14T02:14:58.561Z,912.92
2019-04-14T02:16:11.146Z,912.96
2019-04-14T02:17:00.873Z,912.96
2019-04-14T02:17:58.927Z,912.95
2019-04-14T02:18:58.654Z,912.97
2019-04-14T02:19:58.970Z,912.98
2019-04-14T02:20:58.352Z,913.00
2019-04-14T02:21:58.452Z,912.99
2019-04-14T02:22:59.488Z,912.99
2019-04-14T02:23:58.414Z,913.00
2019-04-14T02:24:59.158Z,912.98
2019-04-14T02:25:58.183Z,913.00
2019-04-14T02:26:59.031Z,913.02
2019-04-14T02:27:58.109Z,913.03
2019-04-14T02:28:59.140Z,912.97
2019-04-14T02:29:58.301Z,913.00
2019-04-14T02:31:12.093Z,913.02
2019-04-14T02:32:25.845Z,913.00
2019-04-14T02:34:41.514Z,913.01
2019-04-14T02:35:32.685Z,913.01
2019-04-14T02:36:32.677Z,913.01
2019-04-14T02:39:38.609Z,913.02
2019-04-14T02:40:34.307Z,913.02
2019-04-14T02:41:30.976Z,913.05
2019-04-14T02:43:33.293Z,913.01
2019-04-14T02:45:33.184Z,913.04
2019-04-14T02:46:26.411Z,913.08
2019-04-14T02:48:36.209Z,913.11
2019-04-14T02:49:27.369Z,913.10
2019-04-14T02:50:24.541Z,913.15
2019-04-14T02:51:40.135Z,913.13
2019-04-14T02:53:24.015Z,913.15
2019-04-14T02:55:19.016Z,913.14
2019-04-14T02:56:41.103Z,913.14
2019-04-14T02:57:26.856Z,913.14
2019-04-14T02:58:30.534Z,913.09
2019-04-14T02:59:19.482Z,913.09
2019-04-14T03:00:25.899Z,913.06
2019-04-14T03:01:48.243Z,913.04
2019-04-14T03:04:19.488Z,912.97
2019-04-14T03:05:19.301Z,912.93
2019-04-14T03:06:18.181Z,912.91
2019-04-14T03:07:28.217Z,912.92
2019-04-14T03:08:23.636Z,912.93
2019-04-14T03:09:28.898Z,912.89
2019-04-14T03:10:25.949Z,912.92
2019-04-14T03:11:24.608Z,912.94
2019-04-14T03:12:25.070Z,912.95
2019-04-14T03:13:22.762Z,912.92
2019-04-14T03:14:25.848Z,912.97
2019-04-14T03:15:27.924Z,912.91
2019-04-14T03:16:29.770Z,912.94
2019-04-14T03:17:43.380Z,912.90
2019-04-14T03:18:32.018Z,912.91
2019-04-14T03:19:27.552Z,912.96
2019-04-14T03:20:32.360Z,912.92
2019-04-14T03:21:34.628Z,912.94
2019-04-14T03:23:23.885Z,912.95
2019-04-14T03:24:27.295Z,912.96
2019-04-14T03:25:09.379Z,912.93
2019-04-14T03:26:23.042Z,912.95
2019-04-14T03:27:25.097Z,912.94
2019-04-14T03:28:20.858Z,912.91
2019-04-14T03:29:21.699Z,912.91
2019-04-14T03:30:51.196Z,912.91
2019-04-14T03:31:37.554Z,912.85
2019-04-14T03:32:38.026Z,912.88
2019-04-14T03:33:48.553Z,912.89
2019-04-14T03:34:37.142Z,912.89
2019-04-14T03:38:24.768Z,912.88
2019-04-14T03:39:23.336Z,912.90
2019-04-14T03:40:28.392Z,912.92
2019-04-14T03:41:24.112Z,912.87
2019-04-14T03:42:31.676Z,912.93
2019-04-14T03:45:33.339Z,912.95
2019-04-14T03:46:25.524Z,912.95
2019-04-14T03:47:23.776Z,912.93
2019-04-14T03:48:45.115Z,912.92
2019-04-14T03:49:27.824Z,912.91
2019-04-14T03:52:26.926Z,912.85
2019-04-14T03:53:23.412Z,912.83
2019-04-14T03:54:19.128Z,912.85
2019-04-14T03:55:15.071Z,912.83
2019-04-14T03:56:00.700Z,912.81
2019-04-14T03:56:55.637Z,912.81
2019-04-14T03:57:56.254Z,912.78
2019-04-14T03:58:55.414Z,912.80
2019-04-14T03:59:56.262Z,912.73
2019-04-14T04:00:55.400Z,912.75
2019-04-14T04:01:54.980Z,912.74
2019-04-14T04:02:55.467Z,912.71
2019-04-14T04:03:54.917Z,912.65
2019-04-14T04:04:55.515Z,912.65
2019-04-14T04:05:56.315Z,912.64
2019-04-14T04:06:55.400Z,912.64
2019-04-14T04:07:55.942Z,912.60
2019-04-14T04:08:55.273Z,912.62
2019-04-14T04:09:54.696Z,912.63
2019-04-14T04:10:55.429Z,912.60
2019-04-14T04:11:54.643Z,912.57
2019-04-14T04:12:55.188Z,912.60
2019-04-14T04:13:54.567Z,912.62
2019-04-14T04:14:55.288Z,912.58
2019-04-14T04:15:54.488Z,912.60
2019-04-14T04:16:55.111Z,912.63
2019-04-14T04:17:54.442Z,912.61
2019-04-14T04:19:02.478Z,912.63
2019-04-14T04:19:55.513Z,912.66
2019-04-14T04:20:54.488Z,912.65
2019-04-14T04:21:55.227Z,912.63
2019-04-14T04:22:54.375Z,912.62
2019-04-14T04:23:55.347Z,912.61
2019-04-14T04:24:54.317Z,912.56
2019-04-14T04:25:55.040Z,912.56
2019-04-14T04:26:54.122Z,912.54
2019-04-14T04:27:54.763Z,912.52
2019-04-14T04:28:54.101Z,912.49
2019-04-14T04:29:54.798Z,912.49
2019-04-14T04:30:53.983Z,912.46
2019-04-14T04:31:54.736Z,912.48
2019-04-14T04:32:53.943Z,912.51
2019-04-14T04:33:54.460Z,912.50
2019-04-14T04:34:53.852Z,912.49
2019-04-14T04:35:54.305Z,912.49
2019-04-14T04:36:53.800Z,912.48
2019-04-14T04:37:54.162Z,912.46
2019-04-14T04:38:53.741Z,912.46
2019-04-14T04:39:54.007Z,912.42
2019-04-14T04:40:53.659Z,912.43
2019-04-14T04:41:53.815Z,912.38
2019-04-14T04:42:54.714Z,912.39
2019-04-14T04:43:53.906Z,912.33
2019-04-14T04:44:53.536Z,912.35
2019-04-14T04:45:53.824Z,912.34
2019-04-14T04:46:53.445Z,912.34
2019-04-14T04:47:53.468Z,912.36
2019-04-14T04:49:03.156Z,912.39
2019-04-14T04:49:53.403Z,912.38
2019-04-14T04:50:54.109Z,912.37
2019-04-14T04:51:53.305Z,912.32
2019-04-14T04:52:53.994Z,912.33
2019-04-14T04:53:53.218Z,912.35
2019-04-14T04:54:53.800Z,912.36
2019-04-14T04:55:53.162Z,912.31
2019-04-14T04:56:53.782Z,912.35
2019-04-14T04:57:53.078Z,912.35
2019-04-14T04:58:53.043Z,912.36
2019-04-14T04:59:53.950Z,912.32
2019-04-14T05:00:54.360Z,912.33
2019-04-14T05:01:53.858Z,912.28
2019-04-14T05:02:52.936Z,912.28
2019-04-14T05:03:53.600Z,912.27
2019-04-14T05:04:52.846Z,912.32
2019-04-14T05:05:53.558Z,912.32
2019-04-14T05:06:52.796Z,912.29
2019-04-14T05:07:53.307Z,912.28
2019-04-14T05:08:52.704Z,912.32
2019-04-14T05:09:53.455Z,912.30
2019-04-14T05:10:52.654Z,912.28
2019-04-14T05:11:54.091Z,912.30
2019-04-14T05:12:52.612Z,912.30
2019-04-14T05:13:53.331Z,912.31
2019-04-14T05:14:52.533Z,912.31
2019-04-14T05:15:53.207Z,912.30
2019-04-14T05:16:52.860Z,912.34
2019-04-14T05:17:52.432Z,912.34
2019-04-14T05:18:53.036Z,912.32
2019-04-14T05:19:52.345Z,912.34
2019-04-14T05:20:53.218Z,912.32
2019-04-14T05:21:52.289Z,912.33
2019-04-14T05:22:52.959Z,912.31
2019-04-14T05:23:52.221Z,912.31
2019-04-14T05:24:52.868Z,912.32
2019-04-14T05:25:52.153Z,912.30
2019-04-14T05:26:52.744Z,912.28
2019-04-14T05:27:52.069Z,912.29
2019-04-14T05:28:52.736Z,912.28
2019-04-14T05:29:52.023Z,912.28
2019-04-14T05:30:52.538Z,912.26
2019-04-14T05:31:51.941Z,912.27
2019-04-14T05:32:52.216Z,912.24
2019-04-14T05:33:51.870Z,912.25
2019-04-14T05:34:52.193Z,912.27
2019-04-14T05:35:53.079Z,912.24
2019-04-14T05:36:52.162Z,912.25
2019-04-14T05:37:52.913Z,912.21
2019-04-14T05:38:51.819Z,912.21
2019-04-14T05:39:52.599Z,912.18
2019-04-14T05:40:51.954Z,912.21
2019-04-14T05:42:00.493Z,912.20
2019-04-14T05:42:51.680Z,912.20
2019-04-14T05:43:56.524Z,912.19
2019-04-14T05:44:51.632Z,912.21
2019-04-14T05:45:52.214Z,912.21
2019-04-14T05:46:51.463Z,912.22
2019-04-14T05:47:52.237Z,912.23
2019-04-14T05:48:51.447Z,912.24
2019-04-14T05:49:53.446Z,912.23
2019-04-14T05:50:51.306Z,912.23
2019-04-14T05:51:52.349Z,912.21
2019-04-14T05:52:51.490Z,912.16
2019-04-14T05:53:52.276Z,912.18
2019-04-14T05:54:51.501Z,912.16
2019-04-14T05:55:52.428Z,912.14
2019-04-14T05:56:51.627Z,912.11
2019-04-14T05:57:52.374Z,912.10
2019-04-14T05:58:51.515Z,912.08
2019-04-14T05:59:50.997Z,912.12
2019-04-14T06:00:51.775Z,912.10
2019-04-14T06:01:51.076Z,912.10
2019-04-14T06:02:50.895Z,912.08
2019-04-14T06:03:51.719Z,912.13
2019-04-14T06:04:50.849Z,912.10
2019-04-14T06:05:50.787Z,912.09
2019-04-14T06:06:50.775Z,912.08
2019-04-14T06:07:50.840Z,912.03
2019-04-14T06:08:50.686Z,912.02
2019-04-14T06:09:50.653Z,912.01
2019-04-14T06:10:50.622Z,911.99
2019-04-14T06:11:50.605Z,912.01
2019-04-14T06:12:50.553Z,912.01
2019-04-14T06:13:50.792Z,912.01
2019-04-14T06:14:50.481Z,911.98
2019-04-14T06:15:50.473Z,911.97
2019-04-14T06:16:50.439Z,911.96
2019-04-14T06:17:50.381Z,911.95
2019-04-14T06:18:50.376Z,911.94
2019-04-14T06:19:50.316Z,911.94
2019-04-14T06:20:50.306Z,911.91
2019-04-14T06:21:50.246Z,911.93
2019-04-14T06:22:50.248Z,911.92
2019-04-14T06:23:50.183Z,911.91
2019-04-14T06:24:50.169Z,911.85
2019-04-14T06:25:50.114Z,911.89
2019-04-14T06:26:50.089Z,911.87
2019-04-14T06:27:50.064Z,911.85
2019-04-14T06:28:50.022Z,911.86
2019-04-14T06:29:49.976Z,911.87
2019-04-14T06:30:49.965Z,911.82
2019-04-14T06:31:49.981Z,911.84
2019-04-14T06:32:49.883Z,911.81
2019-04-14T06:33:49.863Z,911.81
2019-04-14T06:34:49.810Z,911.79
2019-04-14T06:35:49.802Z,911.77
2019-04-14T06:36:49.770Z,911.76
2019-04-14T06:37:49.747Z,911.79
2019-04-14T06:38:49.677Z,911.74
2019-04-14T06:39:49.683Z,911.73
2019-04-14T06:40:49.776Z,911.73
2019-04-14T06:41:49.576Z,911.76
2019-04-14T06:42:49.564Z,911.73
2019-04-14T06:43:49.537Z,911.74
2019-04-14T06:44:49.509Z,911.73
2019-04-14T06:45:49.442Z,911.73
2019-04-14T06:46:49.425Z,911.75
2019-04-14T06:47:49.374Z,911.74
2019-04-14T06:48:49.356Z,911.73
2019-04-14T06:49:49.546Z,911.70
2019-04-14T06:50:49.289Z,911.72
2019-04-14T06:51:49.258Z,911.70
2019-04-14T06:52:49.206Z,911.69
2019-04-14T06:53:49.169Z,911.73
2019-04-14T06:54:49.141Z,911.70
2019-04-14T06:55:49.123Z,911.73
2019-04-14T06:57:49.038Z,911.76
2019-04-14T06:58:49.023Z,911.72
2019-04-14T06:59:48.987Z,911.72
2019-04-14T07:00:48.937Z,911.73
2019-04-14T07:01:48.934Z,911.73
2019-04-14T07:02:48.898Z,911.70
2019-04-14T07:03:48.862Z,911.70
2019-04-14T07:04:48.826Z,911.68
2019-04-14T07:05:48.767Z,911.71
2019-04-14T07:06:51.231Z,911.65
2019-04-14T07:07:56.801Z,911.63
2019-04-14T07:08:48.684Z,911.62
2019-04-14T07:09:48.649Z,911.62
2019-04-14T07:10:48.616Z,911.58
2019-04-14T07:11:48.568Z,911.62
2019-04-14T07:12:48.647Z,911.60
2019-04-14T07:13:48.499Z,911.56
2019-04-14T07:14:48.546Z,911.60
2019-04-14T07:15:48.449Z,911.53
2019-04-14T07:16:51.136Z,911.54
2019-04-14T07:17:48.385Z,911.57
2019-04-14T07:18:48.328Z,911.58
2019-04-14T07:20:00.835Z,911.60
2019-04-14T07:20:48.340Z,911.60
2019-04-14T07:21:48.246Z,911.61
2019-04-14T07:22:48.214Z,911.62
2019-04-14T07:23:48.160Z,911.60
2019-04-14T07:24:48.206Z,911.61
2019-04-14T07:25:48.110Z,911.59
2019-04-14T07:26:48.080Z,911.60
2019-04-14T07:27:48.023Z,911.63
2019-04-14T07:28:56.562Z,911.61
2019-04-14T07:29:48.011Z,911.62
2019-04-14T07:30:48.001Z,911.60
2019-04-14T07:31:47.909Z,911.61
2019-04-14T07:32:47.897Z,911.62
2019-04-14T07:33:47.839Z,911.61
2019-04-14T07:34:47.791Z,911.60
2019-04-14T07:35:47.772Z,911.58
2019-04-14T07:36:47.719Z,911.63
2019-04-14T07:37:47.716Z,911.56
2019-04-14T07:38:47.824Z,911.56
2019-04-14T07:39:47.620Z,911.57
2019-04-14T07:40:47.615Z,911.57
2019-04-14T07:41:47.567Z,911.53
2019-04-14T07:42:47.523Z,911.54
2019-04-14T07:43:47.484Z,911.53
2019-04-14T07:44:47.451Z,911.58
2019-04-14T07:45:47.437Z,911.58
2019-04-14T07:46:47.409Z,911.60
2019-04-14T07:47:47.370Z,911.56
2019-04-14T07:48:47.333Z,911.63
2019-04-14T07:49:47.357Z,911.67
2019-04-14T07:50:47.266Z,911.64
2019-04-14T07:51:47.233Z,911.62
2019-04-14T07:52:47.199Z,911.62
2019-04-14T07:53:47.164Z,911.62
2019-04-14T07:54:47.125Z,911.59
2019-04-14T07:55:47.109Z,911.62
2019-04-14T07:56:47.061Z,911.60
2019-04-14T07:57:47.008Z,911.58
2019-04-14T07:58:46.998Z,911.59
2019-04-14T07:59:46.967Z,911.59
2019-04-14T08:00:46.926Z,911.55
2019-04-14T08:01:46.882Z,911.57
2019-04-14T08:02:46.842Z,911.59
2019-04-14T08:03:46.815Z,911.60
2019-04-14T08:04:46.925Z,911.59
2019-04-14T08:05:46.756Z,911.61
2019-04-14T08:06:46.828Z,911.61
2019-04-14T08:07:46.670Z,911.60
2019-04-14T08:08:46.671Z,911.57
2019-04-14T08:09:46.628Z,911.61
2019-04-14T08:10:46.570Z,911.59
2019-04-14T08:11:46.562Z,911.61
2019-04-14T08:12:46.529Z,911.59
2019-04-14T08:13:46.488Z,911.60
2019-04-14T08:14:46.438Z,911.61
2019-04-14T08:15:46.422Z,911.65
2019-04-14T08:16:46.366Z,911.65
2019-04-14T08:17:46.332Z,911.67
2019-04-14T08:18:46.323Z,911.65
2019-04-14T08:19:46.269Z,911.65
2019-04-14T08:20:46.263Z,911.70
2019-04-14T08:21:46.196Z,911.69
2019-04-14T08:22:46.165Z,911.67
2019-04-14T08:23:46.132Z,911.66
2019-04-14T08:24:46.096Z,911.68
2019-04-14T08:25:46.063Z,911.66
2019-04-14T08:26:46.028Z,911.68
2019-04-14T08:27:46.004Z,911.68
2019-04-14T08:28:46.009Z,911.68
2019-04-14T08:29:45.951Z,911.67
2019-04-14T08:30:45.897Z,911.71
2019-04-14T08:31:45.874Z,911.68
2019-04-14T08:32:45.846Z,911.71
2019-04-14T08:33:45.819Z,911.75
2019-04-14T08:34:45.780Z,911.75
2019-04-14T08:35:45.738Z,911.77
2019-04-14T08:36:45.946Z,911.76
2019-04-14T08:37:45.658Z,911.81
2019-04-14T08:38:45.627Z,911.79
2019-04-14T08:39:45.618Z,911.82
2019-04-14T08:40:45.581Z,911.83
2019-04-14T08:41:45.553Z,911.85
2019-04-14T08:42:45.509Z,911.88
2019-04-14T08:43:45.459Z,911.92
2019-04-14T08:44:45.442Z,911.92
2019-04-14T08:45:45.389Z,911.96
2019-04-14T08:46:45.358Z,911.96
2019-04-14T08:47:45.326Z,912.00
2019-04-14T08:48:45.308Z,911.99
2019-04-14T08:49:45.260Z,912.08
2019-04-14T08:50:45.217Z,912.03
2019-04-14T08:51:45.223Z,912.09
2019-04-14T08:52:45.152Z,912.08
2019-04-14T08:53:45.137Z,912.09
2019-04-14T08:54:45.087Z,912.13
2019-04-14T08:55:45.055Z,912.14
2019-04-14T08:56:45.013Z,912.18
2019-04-14T08:57:45.003Z,912.21
2019-04-14T08:58:44.970Z,912.23
2019-04-14T08:59:44.917Z,912.24
2019-04-14T09:00:44.898Z,912.23
2019-04-14T09:01:44.865Z,912.29
2019-04-14T09:02:44.840Z,912.29
2019-04-14T09:04:44.764Z,912.33
2019-04-14T09:05:44.712Z,912.31
2019-04-14T09:06:44.675Z,912.34
2019-04-14T09:07:44.644Z,912.36
2019-04-14T09:08:44.633Z,912.37
2019-04-14T09:09:44.700Z,912.40
2019-04-14T09:10:44.560Z,912.45
2019-04-14T09:11:44.526Z,912.49
2019-04-14T09:12:44.490Z,912.47
2019-04-14T09:13:44.458Z,912.48
2019-04-14T09:14:56.405Z,912.50
2019-04-14T09:15:44.375Z,912.51
2019-04-14T09:16:44.343Z,912.52
2019-04-14T09:17:44.329Z,912.50
2019-04-14T09:18:44.269Z,912.56
2019-04-14T09:19:44.262Z,912.59
2019-04-14T09:20:52.263Z,912.61
2019-04-14T09:21:44.187Z,912.64
2019-04-14T09:22:44.135Z,912.67
2019-04-14T09:23:44.127Z,912.70
2019-04-14T09:24:44.073Z,912.72
2019-04-14T09:25:44.048Z,912.71
2019-04-14T09:26:44.016Z,912.71
2019-04-14T09:27:43.985Z,912.70
2019-04-14T09:28:43.932Z,912.76
2019-04-14T09:29:44.168Z,912.75
2019-04-14T09:30:43.882Z,912.75
2019-04-14T09:31:43.834Z,912.77
2019-04-14T09:32:43.818Z,912.83
2019-04-14T09:33:43.786Z,912.79
2019-04-14T09:34:43.725Z,912.81
2019-04-14T09:35:43.699Z,912.80
2019-04-14T09:36:43.662Z,912.83
2019-04-14T09:37:43.653Z,912.82
2019-04-14T09:38:43.592Z,912.85
2019-04-14T09:39:43.603Z,912.87
2019-04-14T09:40:43.548Z,912.84
2019-04-14T09:41:43.789Z,912.89
2019-04-14T09:42:43.477Z,912.88
2019-04-14T09:43:43.424Z,912.92
2019-04-14T09:44:43.415Z,912.95
2019-04-14T09:45:43.385Z,912.96
2019-04-14T09:46:43.426Z,912.94
2019-04-14T09:47:43.308Z,912.99
2019-04-14T09:48:43.284Z,912.98
2019-04-14T09:49:43.245Z,912.97
2019-04-14T09:50:43.204Z,913.00
2019-04-14T09:51:43.160Z,912.97
2019-04-14T09:52:43.117Z,912.99
2019-04-14T09:53:43.106Z,913.00
2019-04-14T09:54:43.077Z,913.04
2019-04-14T09:55:43.037Z,913.02
2019-04-14T09:56:42.982Z,913.00
2019-04-14T09:57:42.955Z,913.07
2019-04-14T09:58:42.941Z,913.03
2019-04-14T09:59:42.903Z,913.05
2019-04-14T10:00:42.846Z,913.00
2019-04-14T10:01:42.837Z,913.04
2019-04-14T10:02:42.901Z,913.05
2019-04-14T10:03:42.771Z,913.07
2019-04-14T10:04:42.748Z,913.08
2019-04-14T10:05:42.677Z,913.08
2019-04-14T10:06:42.651Z,913.13
2019-04-14T10:07:42.639Z,913.13
2019-04-14T10:08:42.579Z,913.14
2019-04-14T10:09:42.568Z,913.16
2019-04-14T10:10:42.517Z,913.14
2019-04-14T10:11:48.580Z,913.09
2019-04-14T10:12:42.442Z,913.14
2019-04-14T10:13:42.489Z,913.14
2019-04-14T10:14:42.388Z,913.13
2019-04-14T10:15:42.362Z,913.12
2019-04-14T10:16:42.317Z,913.11
2019-04-14T10:17:42.293Z,913.11
2019-04-14T10:18:42.317Z,913.15
2019-04-14T10:19:42.231Z,913.15
2019-04-14T10:20:42.205Z,913.23
2019-04-14T10:21:42.161Z,913.27
2019-04-14T10:22:42.117Z,913.24
2019-04-14T10:23:42.091Z,913.32
2019-04-14T10:24:42.059Z,913.32
2019-04-14T10:25:42.027Z,913.34
2019-04-14T10:26:42.000Z,913.36
2019-04-14T10:27:41.961Z,913.38
2019-04-14T10:28:41.925Z,913.36
2019-04-14T10:29:41.871Z,913.38
2019-04-14T10:30:41.855Z,913.37
2019-04-14T10:31:41.828Z,913.35
2019-04-14T10:32:41.770Z,913.37
2019-04-14T10:33:41.739Z,913.40
2019-04-14T10:34:41.700Z,913.44
2019-04-14T10:35:41.680Z,913.43
2019-04-14T10:36:41.652Z,913.44
2019-04-14T10:37:41.637Z,913.47
2019-04-14T10:38:41.568Z,913.43
2019-04-14T10:39:41.545Z,913.46
2019-04-14T10:40:41.500Z,913.48
2019-04-14T10:41:41.492Z,913.45
2019-04-14T10:42:41.446Z,913.51
2019-04-14T10:43:41.434Z,913.53
2019-04-14T10:44:41.375Z,913.50
2019-04-14T10:45:41.356Z,913.55
2019-04-14T10:46:41.327Z,913.59
2019-04-14T10:47:41.278Z,913.56
2019-04-14T10:48:41.242Z,913.58
2019-04-14T10:49:41.221Z,913.57
2019-04-14T10:50:41.165Z,913.58
2019-04-14T10:51:41.138Z,913.60
2019-04-14T10:52:41.098Z,913.58
2019-04-14T10:53:41.086Z,913.60
2019-04-14T10:54:41.036Z,913.63
2019-04-14T10:55:41.007Z,913.60
2019-04-14T10:56:40.983Z,913.61
2019-04-14T10:57:40.978Z,913.62
2019-04-14T10:58:40.923Z,913.62
2019-04-14T10:59:40.897Z,913.63
2019-04-14T11:00:40.860Z,913.63
2019-04-14T11:01:40.871Z,913.62
2019-04-14T11:02:40.771Z,913.65
2019-04-14T11:03:40.744Z,913.65
2019-04-14T11:04:40.708Z,913.67
2019-04-14T11:05:40.669Z,913.67
2019-04-14T11:06:40.640Z,913.70
2019-04-14T11:07:40.614Z,913.70
2019-04-14T11:08:40.585Z,913.71
2019-04-14T11:09:40.559Z,913.71
2019-04-14T11:10:40.535Z,913.72
2019-04-14T11:11:40.580Z,913.74
2019-04-14T11:12:40.461Z,913.75
2019-04-14T11:13:40.418Z,913.73
2019-04-14T11:14:40.386Z,913.75
2019-04-14T11:15:40.335Z,913.77
2019-04-14T11:16:40.507Z,913.78
2019-04-14T11:17:40.279Z,913.77
2019-04-14T11:18:40.236Z,913.78
2019-04-14T11:19:40.242Z,913.82
2019-04-14T11:20:40.188Z,913.83
2019-04-14T11:21:42.591Z,913.79
2019-04-14T11:22:40.124Z,913.82
2019-04-14T11:23:40.099Z,913.80
2019-04-14T11:24:40.047Z,913.80
2019-04-14T11:25:40.038Z,913.79
2019-04-14T11:26:39.991Z,913.81
2019-04-14T11:27:39.990Z,913.81
2019-04-14T11:28:39.936Z,913.81
2019-04-14T11:29:39.906Z,913.84
2019-04-14T11:30:39.870Z,913.87
2019-04-14T11:31:39.836Z,913.87
2019-04-14T11:32:39.781Z,913.86
2019-04-14T11:33:39.976Z,913.84
2019-04-14T11:34:39.723Z,913.86
2019-04-14T11:35:39.726Z,913.82
2019-04-14T11:36:39.686Z,913.82
2019-04-14T11:37:39.774Z,913.80
2019-04-14T11:38:39.638Z,913.85
2019-04-14T11:39:39.572Z,913.84
2019-04-14T11:40:39.515Z,913.85
2019-04-14T11:41:39.478Z,913.83
2019-04-14T11:42:51.636Z,913.83
2019-04-14T11:43:39.434Z,913.86
2019-04-14T11:44:39.409Z,913.87
2019-04-14T11:45:39.343Z,913.90
2019-04-14T11:46:39.332Z,913.91
2019-04-14T11:47:39.281Z,913.91
2019-04-14T11:48:39.278Z,913.92
2019-04-14T11:49:39.211Z,913.90
2019-04-14T11:50:39.203Z,913.94
2019-04-14T11:51:39.181Z,913.92
2019-04-14T11:52:39.138Z,913.93
2019-04-14T11:53:39.139Z,913.92
2019-04-14T11:54:39.055Z,913.94
2019-04-14T11:55:39.037Z,913.97
2019-04-14T11:56:38.985Z,913.98
2019-04-14T11:57:38.976Z,913.98
2019-04-14T11:58:38.951Z,914.01
2019-04-14T11:59:38.885Z,913.98
2019-04-14T12:00:38.874Z,913.99
2019-04-14T12:01:38.843Z,913.98
2019-04-14T12:02:38.828Z,914.02
2019-04-14T12:03:38.780Z,914.01
2019-04-14T12:04:38.818Z,914.01
2019-04-14T12:05:38.689Z,914.05
2019-04-14T12:06:38.675Z,914.03
2019-04-14T12:07:38.632Z,914.05
2019-04-14T12:08:38.614Z,914.08
2019-04-14T12:09:38.602Z,914.06
2019-04-14T12:10:38.550Z,914.09
2019-04-14T12:11:38.503Z,914.12
2019-04-14T12:12:38.479Z,914.14
2019-04-14T12:13:38.448Z,914.15
2019-04-14T12:14:38.420Z,914.17
2019-04-14T12:15:38.369Z,914.18
2019-04-14T12:16:38.343Z,914.22
2019-04-14T12:17:38.353Z,914.23
2019-04-14T12:18:38.268Z,914.21
2019-04-14T12:19:38.252Z,914.23
2019-04-14T12:20:38.218Z,914.23
2019-04-14T12:21:38.166Z,914.24
2019-04-14T12:22:38.153Z,914.28
2019-04-14T12:23:38.124Z,914.28
2019-04-14T12:24:38.135Z,914.28
2019-04-14T12:25:38.084Z,914.29
2019-04-14T12:26:38.007Z,914.33
2019-04-14T12:27:37.979Z,914.37
2019-04-14T12:28:38.306Z,914.40
2019-04-14T12:29:38.938Z,914.39
2019-04-14T12:30:37.878Z,914.42
2019-04-14T12:31:37.878Z,914.43
2019-04-14T12:32:37.880Z,914.44
2019-04-14T12:33:37.810Z,914.46
2019-04-14T12:34:37.771Z,914.44
2019-04-14T12:35:37.762Z,914.44
2019-04-14T12:36:37.722Z,914.48
2019-04-14T12:37:37.683Z,914.45
2019-04-14T12:38:37.656Z,914.50
2019-04-14T12:39:37.634Z,914.47
2019-04-14T12:40:38.742Z,914.44
2019-04-14T12:41:37.689Z,914.47
2019-04-14T12:42:37.493Z,914.49
2019-04-14T12:43:37.480Z,914.46
2019-04-14T12:44:37.692Z,914.48
2019-04-14T12:45:37.392Z,914.47
2019-04-14T12:46:37.360Z,914.48
2019-04-14T12:47:40.342Z,914.49
2019-04-14T12:48:37.315Z,914.50